NCAR-RAP Real-Time Weather Data

Output produced by METARs form (12 August 2020  18:10 UTC)
found at http://weather.rap.ucar.edu/surface/
 
KMSO 121753Z AUTO 34005KT 10SM CLR 21/01 A2991 RMK AO2 SLP107 T02110011 10211 20128 51011
KMSO 121653Z AUTO 27009KT 10SM CLR 21/01 A2989 RMK AO2 SLP104 T02060011
KMSO 121553Z AUTO 30011KT 10SM FEW120 20/01 A2988 RMK AO2 SLP099 T02000006
KMSO 121453Z AUTO 24004KT 10SM CLR 19/05 A2987 RMK AO2 SLP091 T01890050 51015
KMSO 121353Z AUTO 00000KT 10SM CLR 15/07 A2986 RMK AO2 SLP090 T01500067
KMSO 121253Z AUTO 16004KT 10SM CLR 13/06 A2984 RMK AO2 SLP083 T01280061
KMSO 121153Z AUTO 00000KT 10SM CLR 13/06 A2982 RMK AO2 SLP074 T01330061 10206 20133 51013
KMSO 121053Z AUTO 29005KT 10SM OVC110 14/06 A2982 RMK AO2 SLP071 T01440061
KMSO 120953Z AUTO 06005KT 10SM OVC110 17/06 A2981 RMK AO2 SLP066 T01720061
KMSO 120853Z AUTO 00000KT 10SM SCT110 21/04 A2978 RMK AO2 PRESFR SLP054 T02060039 58001
KMSO 120753Z AUTO 10003KT 10SM SCT120 17/05 A2981 RMK AO2 SLP069 T01670050
KMSO 120653Z AUTO VRB05KT 10SM CLR 18/05 A2980 RMK AO2 SLP067 T01780050 403280094
KMSO 120553Z AUTO 00000KT 10SM CLR 20/05 A2978 RMK AO2 SLP061 T02000050 10322 20189 51009
KMSO 120453Z AUTO 33006KT 10SM CLR 19/03 A2978 RMK AO2 SLP063 T01940033
KMSO 120353Z AUTO 33007KT 10SM CLR 22/03 A2978 RMK AO2 SLP062 T02220028
KMSO 120253Z 36007KT 10SM CLR 26/02 A2975 RMK AO2 SLP054 T02560022 56008
KMSO 120153Z 33009KT 10SM CLR 28/02 A2975 RMK AO2 SLP054 T02830017
KMSO 120053Z 29009KT 10SM CLR 31/01 A2976 RMK AO2 SLP056 T03110011
KMSO 112353Z 27012KT 10SM CLR 32/M02 A2978 RMK AO2 PK WND 25026/2325 SLP059 T03221017 10328 20250 56015
KMSO 112253Z 24016G25KT 10SM CLR 32/M01 A2979 RMK AO2 PK WND 25028/2237 SLP064 T03221006